Flood From: 19-02-2018 16:00 Until: 20-02-2018 16:00 warning for: Flood Level: Yellow info button

Although rather usual in this region, locally or potentially dangerous phenomena are expected. (such as local winds, summer thunderstorms, rising streams or high waves) Be aware and pay attention to the latest weather updates, especially if you carry out activities exposed to weather or close to a stream or shoreline. 


Meteo18 Weather Cam more information Meteo18 Weather Cam


Thunder radar more information blitzortung!


Rain radar more information rain snow radar


Visit our other weather sites:

Template documentation
and downloads

And another site



Weather Underground History page Text

Daily Summary for December 15, 2017 Units:  Both    English   Metric
« Previous Day
Next Day »
Daily Weekly Monthly Yearly Custom
  High: Low: Average:
Temperature: TemperatureC °F /  -17.8 °C 2.7 °F /  -16.3 °C 4.3 °F /  -15.4 °C
Dew Point: DewpointC °F /  -17.8 °C 1.6 °F /  -16.9 °C 2.7 °F /  -16.3 °C
Humidity: Humidity % 81 % 89 %
Wind Speed: WindSpeedKMH mph /  0 km/h - 11.8 mph /  19 km/h
Wind Gust: WindSpeedGustKMH mph /  0 km/h - -
Wind:- - WSW
Pressure: PressurehPa in /  0 hPa 999.2 in /  33832.9 hPa -
Precipitation: 3.6 in /  91.44 mm    
Historical Graphs
 
 
Tabular Data for December 15, 2017
Time Temperature Dew Point Pressure Wind Wind Speed Wind Gust Humidity Rainfall Rate (Hourly)
TemperatureC °F /  -17.8 °C DewpointC °F /  -17.8 °C PressurehPa in /  0 hPa Calm     Humidity % HourlyPrecipMM in /  0 mm
00:02 4.9 °F /  -15.1 °C 3.2 °F /  -16 °C 999.5 in /  33843.1 hPa WSW 9.7 mph /  15.6 km/h 19.3 mph /  31.1 km/h 89 % 0.0 in /  0 mm
00:12 4.8 °F /  -15.1 °C 3.1 °F /  -16.1 °C 999.9 in /  33856.6 hPa WSW 16.1 mph /  25.9 km/h 20.9 mph /  33.6 km/h 89 % 0.0 in /  0 mm
00:17 4.8 °F /  -15.1 °C 3.0 °F /  -16.1 °C 999.9 in /  33856.6 hPa West 8.0 mph /  12.9 km/h 20.9 mph /  33.6 km/h 88 % 0.0 in /  0 mm
00:22 4.8 °F /  -15.1 °C 3.0 °F /  -16.1 °C 1000.2 in /  33866.8 hPa SW 8.0 mph /  12.9 km/h 22.5 mph /  36.2 km/h 88 % 0.0 in /  0 mm
00:32 4.7 °F /  -15.2 °C 3.0 °F /  -16.1 °C 1000.2 in /  33866.8 hPa WSW 6.4 mph /  10.3 km/h 22.5 mph /  36.2 km/h 89 % 0.0 in /  0 mm
00:42 4.7 °F /  -15.2 °C 3.2 °F /  -16 °C 1000.2 in /  33866.8 hPa WSW 17.7 mph /  28.5 km/h 22.5 mph /  36.2 km/h 90 % 0.0 in /  0 mm
00:47 4.6 °F /  -15.2 °C 2.9 °F /  -16.2 °C 1000.2 in /  33866.8 hPa West 6.4 mph /  10.3 km/h 24.1 mph /  38.8 km/h 89 % 0.0 in /  0 mm
00:52 4.6 °F /  -15.2 °C 2.9 °F /  -16.2 °C 1000.2 in /  33866.8 hPa SSW 6.4 mph /  10.3 km/h 24.1 mph /  38.8 km/h 89 % 0.0 in /  0 mm
00:57 4.6 °F /  -15.2 °C 2.9 °F /  -16.2 °C 1000.2 in /  33866.8 hPa WSW 20.9 mph /  33.6 km/h 24.1 mph /  38.8 km/h 89 % 0.0 in /  0 mm
01:02 4.6 °F /  -15.2 °C 2.9 °F /  -16.2 °C 1000.2 in /  33866.8 hPa WSW 19.3 mph /  31.1 km/h 32.2 mph /  51.8 km/h 89 % 0.0 in /  0 mm
01:07 4.6 °F /  -15.2 °C 2.9 °F /  -16.2 °C 1000.2 in /  33866.8 hPa WSW 8.0 mph /  12.9 km/h 32.2 mph /  51.8 km/h 89 % 0.0 in /  0 mm
01:12 4.6 °F /  -15.2 °C 2.9 °F /  -16.2 °C 1000.2 in /  33866.8 hPa WSW 14.5 mph /  23.3 km/h 32.2 mph /  51.8 km/h 89 % 0.0 in /  0 mm
01:17 4.6 °F /  -15.2 °C 2.9 °F /  -16.2 °C 1000.2 in /  33866.8 hPa WSW 4.8 mph /  7.7 km/h 25.7 mph /  41.4 km/h 89 % 0.0 in /  0 mm
01:22 4.5 °F /  -15.3 °C 2.8 °F /  -16.2 °C 1000.6 in /  33880.3 hPa WSW 12.9 mph /  20.8 km/h 20.9 mph /  33.6 km/h 89 % 0.0 in /  0 mm
01:27 4.5 °F /  -15.3 °C 2.8 °F /  -16.2 °C 1000.6 in /  33880.3 hPa West 8.0 mph /  12.9 km/h 19.3 mph /  31.1 km/h 89 % 0.0 in /  0 mm
01:32 4.5 °F /  -15.3 °C 2.8 °F /  -16.2 °C 1000.2 in /  33866.8 hPa SW 6.4 mph /  10.3 km/h 24.1 mph /  38.8 km/h 89 % 0.0 in /  0 mm
01:42 4.4 °F /  -15.3 °C 2.7 °F /  -16.3 °C 1000.6 in /  33880.3 hPa SW 9.7 mph /  15.6 km/h 24.1 mph /  38.8 km/h 89 % 0.0 in /  0 mm
01:47 4.4 °F /  -15.3 °C 2.9 °F /  -16.2 °C 1000.2 in /  33866.8 hPa SW 4.8 mph /  7.7 km/h 19.3 mph /  31.1 km/h 90 % 0.0 in /  0 mm
01:52 4.3 °F /  -15.4 °C 2.8 °F /  -16.2 °C 1000.2 in /  33866.8 hPa West 6.4 mph /  10.3 km/h 19.3 mph /  31.1 km/h 90 % 0.0 in /  0 mm
01:57 4.2 °F /  -15.4 °C 2.7 °F /  -16.3 °C 1000.2 in /  33866.8 hPa SW 9.7 mph /  15.6 km/h 19.3 mph /  31.1 km/h 90 % 0.0 in /  0 mm
02:02 4.1 °F /  -15.5 °C 2.6 °F /  -16.3 °C 1000.2 in /  33866.8 hPa SSW 6.4 mph /  10.3 km/h 17.7 mph /  28.5 km/h 90 % 0.0 in /  0 mm
02:07 3.9 °F /  -15.6 °C 2.4 °F /  -16.4 °C 1000.2 in /  33866.8 hPa South 4.8 mph /  7.7 km/h 17.7 mph /  28.5 km/h 90 % 0.0 in /  0 mm
02:12 3.8 °F /  -15.7 °C 2.5 °F /  -16.4 °C 1000.2 in /  33866.8 hPa SW 9.7 mph /  15.6 km/h 17.7 mph /  28.5 km/h 91 % 0.0 in /  0 mm
02:17 3.8 °F /  -15.7 °C 2.5 °F /  -16.4 °C 1000.2 in /  33866.8 hPa SW 9.7 mph /  15.6 km/h 17.7 mph /  28.5 km/h 91 % 0.0 in /  0 mm
02:22 3.7 °F /  -15.7 °C 2.4 °F /  -16.4 °C 1000.2 in /  33866.8 hPa SW 8.0 mph /  12.9 km/h 17.7 mph /  28.5 km/h 91 % 0.0 in /  0 mm
02:27 3.6 °F /  -15.8 °C 2.1 °F /  -16.6 °C 1000.2 in /  33866.8 hPa SSW 9.7 mph /  15.6 km/h 17.7 mph /  28.5 km/h 90 % 0.0 in /  0 mm
02:32 3.4 °F /  -15.9 °C 2.1 °F /  -16.6 °C 1000.2 in /  33866.8 hPa SSW 11.3 mph /  18.2 km/h 17.7 mph /  28.5 km/h 91 % 0.0 in /  0 mm
02:37 3.4 °F /  -15.9 °C 2.1 °F /  -16.6 °C 1000.2 in /  33866.8 hPa SW 9.7 mph /  15.6 km/h 17.7 mph /  28.5 km/h 91 % 0.0 in /  0 mm
02:42 3.4 °F /  -15.9 °C 2.1 °F /  -16.6 °C 999.9 in /  33856.6 hPa SW 14.5 mph /  23.3 km/h 17.7 mph /  28.5 km/h 91 % 0.0 in /  0 mm
02:52 3.5 °F /  -15.8 °C 2.2 °F /  -16.6 °C 1000.2 in /  33866.8 hPa SW 3.2 mph /  5.1 km/h 17.7 mph /  28.5 km/h 91 % 0.0 in /  0 mm
02:57 3.6 °F /  -15.8 °C 2.3 °F /  -16.5 °C 999.9 in /  33856.6 hPa SSW 8.0 mph /  12.9 km/h 19.3 mph /  31.1 km/h 91 % 0.0 in /  0 mm
03:02 3.6 °F /  -15.8 °C 2.1 °F /  -16.6 °C 1000.2 in /  33866.8 hPa West 12.9 mph /  20.8 km/h 22.5 mph /  36.2 km/h 90 % 0.0 in /  0 mm
03:07 3.6 °F /  -15.8 °C 2.3 °F /  -16.5 °C 1000.2 in /  33866.8 hPa SW 14.5 mph /  23.3 km/h 22.5 mph /  36.2 km/h 91 % 0.0 in /  0 mm
03:12 3.7 °F /  -15.7 °C 2.2 °F /  -16.6 °C 999.9 in /  33856.6 hPa SW 11.3 mph /  18.2 km/h 22.5 mph /  36.2 km/h 90 % 0.0 in /  0 mm
03:17 3.7 °F /  -15.7 °C 2.2 °F /  -16.6 °C 999.9 in /  33856.6 hPa SW 12.9 mph /  20.8 km/h 24.1 mph /  38.8 km/h 90 % 0.0 in /  0 mm
03:22 3.8 °F /  -15.7 °C 2.3 °F /  -16.5 °C 999.9 in /  33856.6 hPa SW 20.9 mph /  33.6 km/h 24.1 mph /  38.8 km/h 90 % 0.0 in /  0 mm
03:32 3.9 °F /  -15.6 °C 2.4 °F /  -16.4 °C 999.9 in /  33856.6 hPa SW 6.4 mph /  10.3 km/h 32.2 mph /  51.8 km/h 90 % 0.0 in /  0 mm
03:37 4.0 °F /  -15.6 °C 2.5 °F /  -16.4 °C 999.9 in /  33856.6 hPa WSW 11.3 mph /  18.2 km/h 32.2 mph /  51.8 km/h 90 % 0.0 in /  0 mm
03:42 4.0 °F /  -15.6 °C 2.5 °F /  -16.4 °C 999.9 in /  33856.6 hPa SW 19.3 mph /  31.1 km/h 32.2 mph /  51.8 km/h 90 % 0.0 in /  0 mm
03:47 4.1 °F /  -15.5 °C 2.6 °F /  -16.3 °C 999.9 in /  33856.6 hPa West 11.3 mph /  18.2 km/h 30.6 mph /  49.2 km/h 90 % 0.0 in /  0 mm
03:52 4.1 °F /  -15.5 °C 2.5 °F /  -16.4 °C 1000.2 in /  33866.8 hPa SW 12.9 mph /  20.8 km/h 30.6 mph /  49.2 km/h 89 % 0.0 in /  0 mm
03:57 4.1 °F /  -15.5 °C 2.5 °F /  -16.4 °C 1000.2 in /  33866.8 hPa SSW 8.0 mph /  12.9 km/h 30.6 mph /  49.2 km/h 89 % 0.0 in /  0 mm
04:02 4.1 °F /  -15.5 °C 2.5 °F /  -16.4 °C 1000.2 in /  33866.8 hPa WSW 24.1 mph /  38.8 km/h 25.7 mph /  41.4 km/h 89 % 0.0 in /  0 mm
04:13 4.2 °F /  -15.4 °C 2.5 °F /  -16.4 °C 1000.2 in /  33866.8 hPa West 12.9 mph /  20.8 km/h 27.4 mph /  44.1 km/h 89 % 0.0 in /  0 mm
04:22 4.2 °F /  -15.4 °C 2.5 °F /  -16.4 °C 1000.2 in /  33866.8 hPa WSW 16.1 mph /  25.9 km/h 25.7 mph /  41.4 km/h 89 % 0.0 in /  0 mm
04:27 4.2 °F /  -15.4 °C 2.5 °F /  -16.4 °C 1000.2 in /  33866.8 hPa West 11.3 mph /  18.2 km/h 25.7 mph /  41.4 km/h 89 % 0.0 in /  0 mm
04:32 4.1 °F /  -15.5 °C 2.5 °F /  -16.4 °C 1000.2 in /  33866.8 hPa SW 12.9 mph /  20.8 km/h 25.7 mph /  41.4 km/h 89 % 0.0 in /  0 mm
04:37 4.2 °F /  -15.4 °C 2.5 °F /  -16.4 °C 1000.2 in /  33866.8 hPa WSW 16.1 mph /  25.9 km/h 20.9 mph /  33.6 km/h 89 % 0.0 in /  0 mm
04:42 4.2 °F /  -15.4 °C 2.5 °F /  -16.4 °C 1000.2 in /  33866.8 hPa WSW 8.0 mph /  12.9 km/h 29.0 mph /  46.7 km/h 89 % 0.0 in /  0 mm
04:47 4.3 °F /  -15.4 °C 2.6 °F /  -16.3 °C 1000.2 in /  33866.8 hPa SW 9.7 mph /  15.6 km/h 38.6 mph /  62.1 km/h 89 % 0.0 in /  0 mm
04:52 4.3 °F /  -15.4 °C 2.6 °F /  -16.3 °C 1000.6 in /  33880.3 hPa WSW 17.7 mph /  28.5 km/h 38.6 mph /  62.1 km/h 89 % 0.0 in /  0 mm
04:57 4.3 °F /  -15.4 °C 2.6 °F /  -16.3 °C 1000.6 in /  33880.3 hPa WSW 12.9 mph /  20.8 km/h 38.6 mph /  62.1 km/h 89 % 0.0 in /  0 mm
05:02 4.3 °F /  -15.4 °C 2.6 °F /  -16.3 °C 1000.6 in /  33880.3 hPa WSW 9.7 mph /  15.6 km/h 29.0 mph /  46.7 km/h 89 % 0.0 in /  0 mm
05:12 4.3 °F /  -15.4 °C 2.6 °F /  -16.3 °C 1000.6 in /  33880.3 hPa WSW 14.5 mph /  23.3 km/h 25.7 mph /  41.4 km/h 89 % 0.0 in /  0 mm
05:17 4.3 °F /  -15.4 °C 2.6 °F /  -16.3 °C 1000.6 in /  33880.3 hPa SW 11.3 mph /  18.2 km/h 25.7 mph /  41.4 km/h 89 % 0.0 in /  0 mm
05:22 4.3 °F /  -15.4 °C 2.6 °F /  -16.3 °C 1000.6 in /  33880.3 hPa WSW 19.3 mph /  31.1 km/h 27.4 mph /  44.1 km/h 89 % 0.0 in /  0 mm
05:32 4.2 °F /  -15.4 °C 2.5 °F /  -16.4 °C 1000.6 in /  33880.3 hPa West 12.9 mph /  20.8 km/h 27.4 mph /  44.1 km/h 89 % 0.0 in /  0 mm
05:42 4.3 °F /  -15.4 °C 2.6 °F /  -16.3 °C 1000.6 in /  33880.3 hPa WSW 12.9 mph /  20.8 km/h 33.8 mph /  54.4 km/h 89 % 0.0 in /  0 mm
05:47 4.3 °F /  -15.4 °C 2.5 °F /  -16.4 °C 1000.6 in /  33880.3 hPa West 14.5 mph /  23.3 km/h 29.0 mph /  46.7 km/h 88 % 0.0 in /  0 mm
05:52 4.3 °F /  -15.4 °C 2.5 °F /  -16.4 °C 1000.6 in /  33880.3 hPa WSW 17.7 mph /  28.5 km/h 29.0 mph /  46.7 km/h 88 % 0.0 in /  0 mm
05:57 4.3 °F /  -15.4 °C 2.5 °F /  -16.4 °C 1000.6 in /  33880.3 hPa West 22.5 mph /  36.2 km/h 24.1 mph /  38.8 km/h 88 % 0.0 in /  0 mm
06:02 4.3 °F /  -15.4 °C 2.6 °F /  -16.3 °C 1000.6 in /  33880.3 hPa West 12.9 mph /  20.8 km/h 24.1 mph /  38.8 km/h 89 % 0.0 in /  0 mm
06:07 4.2 °F /  -15.4 °C 2.5 °F /  -16.4 °C 1000.9 in /  33890.5 hPa West 16.1 mph /  25.9 km/h 27.4 mph /  44.1 km/h 89 % 0.0 in /  0 mm
06:12 4.3 °F /  -15.4 °C 2.5 °F /  -16.4 °C 1000.9 in /  33890.5 hPa SW 12.9 mph /  20.8 km/h 27.4 mph /  44.1 km/h 88 % 0.0 in /  0 mm
06:22 4.2 °F /  -15.4 °C 2.5 °F /  -16.4 °C 1000.9 in /  33890.5 hPa WSW 12.9 mph /  20.8 km/h 27.4 mph /  44.1 km/h 89 % 0.0 in /  0 mm
06:32 4.1 °F /  -15.5 °C 2.5 °F /  -16.4 °C 1000.9 in /  33890.5 hPa West 8.0 mph /  12.9 km/h 22.5 mph /  36.2 km/h 89 % 0.0 in /  0 mm
06:37 4.0 °F /  -15.6 °C 2.4 °F /  -16.4 °C 1000.9 in /  33890.5 hPa SW 16.1 mph /  25.9 km/h 27.4 mph /  44.1 km/h 89 % 0.0 in /  0 mm
06:42 3.9 °F /  -15.6 °C 2.3 °F /  -16.5 °C 1000.9 in /  33890.5 hPa WSW 11.3 mph /  18.2 km/h 27.4 mph /  44.1 km/h 89 % 0.0 in /  0 mm
06:47 3.9 °F /  -15.6 °C 2.4 °F /  -16.4 °C 1000.9 in /  33890.5 hPa West 24.1 mph /  38.8 km/h 30.6 mph /  49.2 km/h 90 % 0.0 in /  0 mm
06:52 3.8 °F /  -15.7 °C 2.3 °F /  -16.5 °C 1000.9 in /  33890.5 hPa SW 11.3 mph /  18.2 km/h 30.6 mph /  49.2 km/h 90 % 0.0 in /  0 mm
06:57 3.7 °F /  -15.7 °C 2.2 °F /  -16.6 °C 1000.9 in /  33890.5 hPa West 3.2 mph /  5.1 km/h 30.6 mph /  49.2 km/h 90 % 0.0 in /  0 mm
07:02 3.6 °F /  -15.8 °C 2.1 °F /  -16.6 °C 1000.9 in /  33890.5 hPa WSW 9.7 mph /  15.6 km/h 30.6 mph /  49.2 km/h 90 % 0.0 in /  0 mm
07:12 3.4 °F /  -15.9 °C 2.1 °F /  -16.6 °C 1000.9 in /  33890.5 hPa West 8.0 mph /  12.9 km/h 20.9 mph /  33.6 km/h 91 % 0.0 in /  0 mm
07:17 3.4 °F /  -15.9 °C 2.1 °F /  -16.6 °C 1000.6 in /  33880.3 hPa SSW 4.8 mph /  7.7 km/h 22.5 mph /  36.2 km/h 91 % 0.0 in /  0 mm
07:22 3.3 °F /  -15.9 °C 2.0 °F /  -16.7 °C 1000.9 in /  33890.5 hPa WSW 6.4 mph /  10.3 km/h 22.5 mph /  36.2 km/h 91 % 0.0 in /  0 mm
07:32 3.2 °F /  -16 °C 2.0 °F /  -16.7 °C 1000.9 in /  33890.5 hPa SW 4.8 mph /  7.7 km/h 22.5 mph /  36.2 km/h 92 % 0.0 in /  0 mm
07:37 3.2 °F /  -16 °C 2.0 °F /  -16.7 °C 1000.9 in /  33890.5 hPa WSW 9.7 mph /  15.6 km/h 17.7 mph /  28.5 km/h 92 % 0.0 in /  0 mm
07:42 3.1 °F /  -16.1 °C 1.9 °F /  -16.7 °C 1000.9 in /  33890.5 hPa SW 8.0 mph /  12.9 km/h 17.7 mph /  28.5 km/h 92 % 0.0 in /  0 mm
07:52 2.9 °F /  -16.2 °C 1.7 °F /  -16.8 °C 1001.2 in /  33900.6 hPa WSW 9.7 mph /  15.6 km/h 17.7 mph /  28.5 km/h 92 % 0.0 in /  0 mm
07:57 2.9 °F /  -16.2 °C 1.7 °F /  -16.8 °C 1001.2 in /  33900.6 hPa SW 4.8 mph /  7.7 km/h 16.1 mph /  25.9 km/h 92 % 0.0 in /  0 mm
08:02 2.9 °F /  -16.2 °C 1.7 °F /  -16.8 °C 1001.2 in /  33900.6 hPa SW 3.2 mph /  5.1 km/h 12.9 mph /  20.8 km/h 92 % 0.0 in /  0 mm
08:07 2.9 °F /  -16.2 °C 1.7 °F /  -16.8 °C 1001.2 in /  33900.6 hPa SW 6.4 mph /  10.3 km/h 11.3 mph /  18.2 km/h 92 % 0.0 in /  0 mm
08:12 2.8 °F /  -16.2 °C 1.6 °F /  -16.9 °C 1001.2 in /  33900.6 hPa SW 11.3 mph /  18.2 km/h 11.3 mph /  18.2 km/h 92 % 0.0 in /  0 mm
08:17 2.9 °F /  -16.2 °C 1.9 °F /  -16.7 °C 1001.6 in /  33914.2 hPa WSW 9.7 mph /  15.6 km/h 16.1 mph /  25.9 km/h 93 % 0.0 in /  0 mm
08:22 2.9 °F /  -16.2 °C 1.9 °F /  -16.7 °C 1001.6 in /  33914.2 hPa WSW 16.1 mph /  25.9 km/h 16.1 mph /  25.9 km/h 93 % 0.0 in /  0 mm
08:27 2.9 °F /  -16.2 °C 1.9 °F /  -16.7 °C 1001.2 in /  33900.6 hPa SW 8.0 mph /  12.9 km/h 16.1 mph /  25.9 km/h 93 % 0.0 in /  0 mm
08:37 2.9 °F /  -16.2 °C 1.9 °F /  -16.7 °C 1001.2 in /  33900.6 hPa SSE 8.0 mph /  12.9 km/h 17.7 mph /  28.5 km/h 93 % 0.0 in /  0 mm
08:42 2.9 °F /  -16.2 °C 1.9 °F /  -16.7 °C 1001.6 in /  33914.2 hPa SW 11.3 mph /  18.2 km/h 17.7 mph /  28.5 km/h 93 % 0.0 in /  0 mm
08:47 2.9 °F /  -16.2 °C 1.9 °F /  -16.7 °C 1001.6 in /  33914.2 hPa SW 6.4 mph /  10.3 km/h 16.1 mph /  25.9 km/h 93 % 0.0 in /  0 mm
08:52 2.8 °F /  -16.2 °C 1.8 °F /  -16.8 °C 1001.6 in /  33914.2 hPa SW 4.8 mph /  7.7 km/h 16.1 mph /  25.9 km/h 93 % 0.0 in /  0 mm
08:57 2.8 °F /  -16.2 °C 1.8 °F /  -16.8 °C 1001.6 in /  33914.2 hPa SW 8.0 mph /  12.9 km/h 17.7 mph /  28.5 km/h 93 % 0.0 in /  0 mm
09:02 2.7 °F /  -16.3 °C 1.7 °F /  -16.8 °C 1001.6 in /  33914.2 hPa SSW 8.0 mph /  12.9 km/h 17.7 mph /  28.5 km/h 93 % 0.0 in /  0 mm
09:12 2.8 °F /  -16.2 °C 1.8 °F /  -16.8 °C 1001.9 in /  33924.3 hPa SW 6.4 mph /  10.3 km/h 12.9 mph /  20.8 km/h 93 % 0.0 in /  0 mm
09:17 2.9 °F /  -16.2 °C 1.9 °F /  -16.7 °C 1001.9 in /  33924.3 hPa SW 4.8 mph /  7.7 km/h 11.3 mph /  18.2 km/h 93 % 0.0 in /  0 mm
09:22 2.9 °F /  -16.2 °C 1.9 °F /  -16.7 °C 1001.9 in /  33924.3 hPa SW 3.2 mph /  5.1 km/h 12.9 mph /  20.8 km/h 93 % 0.0 in /  0 mm
09:32 2.8 °F /  -16.2 °C 1.8 °F /  -16.8 °C 1001.9 in /  33924.3 hPa SW 6.4 mph /  10.3 km/h 12.9 mph /  20.8 km/h 93 % 0.0 in /  0 mm
09:37 2.8 °F /  -16.2 °C 1.8 °F /  -16.8 °C 1001.9 in /  33924.3 hPa SW 9.7 mph /  15.6 km/h 9.7 mph /  15.6 km/h 93 % 0.0 in /  0 mm
09:42 2.8 °F /  -16.2 °C 1.8 °F /  -16.8 °C 1001.9 in /  33924.3 hPa SW 8.0 mph /  12.9 km/h 9.7 mph /  15.6 km/h 93 % 0.0 in /  0 mm
09:47 2.8 °F /  -16.2 °C 1.9 °F /  -16.7 °C 1001.9 in /  33924.3 hPa SW 8.0 mph /  12.9 km/h 17.7 mph /  28.5 km/h 94 % 0.0 in /  0 mm
09:52 2.9 °F /  -16.2 °C 2.0 °F /  -16.7 °C 1001.9 in /  33924.3 hPa SW 14.5 mph /  23.3 km/h 17.7 mph /  28.5 km/h 94 % 0.0 in /  0 mm
09:57 3.1 °F /  -16.1 °C 2.2 °F /  -16.6 °C 1001.9 in /  33924.3 hPa WSW 14.5 mph /  23.3 km/h 17.7 mph /  28.5 km/h 94 % 0.0 in /  0 mm
10:02 3.2 °F /  -16 °C 2.2 °F /  -16.6 °C 1001.9 in /  33924.3 hPa SW 6.4 mph /  10.3 km/h 17.7 mph /  28.5 km/h 93 % 0.0 in /  0 mm
10:12 3.4 °F /  -15.9 °C 2.4 °F /  -16.4 °C 1002.3 in /  33937.9 hPa WSW 8.0 mph /  12.9 km/h 17.7 mph /  28.5 km/h 93 % 0.0 in /  0 mm
10:17 3.6 °F /  -15.8 °C 2.6 °F /  -16.3 °C 1002.3 in /  33937.9 hPa SW 12.9 mph /  20.8 km/h 20.9 mph /  33.6 km/h 93 % 0.0 in /  0 mm
10:22 3.7 °F /  -15.7 °C 2.5 °F /  -16.4 °C 1002.3 in /  33937.9 hPa SW 6.4 mph /  10.3 km/h 20.9 mph /  33.6 km/h 92 % 0.0 in /  0 mm
10:27 3.8 °F /  -15.7 °C 2.6 °F /  -16.3 °C 1002.3 in /  33937.9 hPa SW 16.1 mph /  25.9 km/h 20.9 mph /  33.6 km/h 92 % 0.0 in /  0 mm
10:32 3.9 °F /  -15.6 °C 2.6 °F /  -16.3 °C 1002.3 in /  33937.9 hPa WSW 9.7 mph /  15.6 km/h 20.9 mph /  33.6 km/h 91 % 0.0 in /  0 mm
10:37 3.9 °F /  -15.6 °C 2.6 °F /  -16.3 °C 1002.3 in /  33937.9 hPa West 12.9 mph /  20.8 km/h 20.9 mph /  33.6 km/h 91 % 0.0 in /  0 mm
10:42 3.9 °F /  -15.6 °C 2.6 °F /  -16.3 °C 1002.3 in /  33937.9 hPa WSW 17.7 mph /  28.5 km/h 20.9 mph /  33.6 km/h 91 % 0.0 in /  0 mm
10:47 3.9 °F /  -15.6 °C 2.6 °F /  -16.3 °C 1002.3 in /  33937.9 hPa SW 9.7 mph /  15.6 km/h 24.1 mph /  38.8 km/h 91 % 0.0 in /  0 mm
10:52 3.9 °F /  -15.6 °C 2.6 °F /  -16.3 °C 1002.3 in /  33937.9 hPa SW 12.9 mph /  20.8 km/h 24.1 mph /  38.8 km/h 91 % 0.0 in /  0 mm
10:57 4.1 °F /  -15.5 °C 2.8 °F /  -16.2 °C 1002.3 in /  33937.9 hPa WSW 17.7 mph /  28.5 km/h 24.1 mph /  38.8 km/h 91 % 0.0 in /  0 mm
11:02 4.2 °F /  -15.4 °C 2.9 °F /  -16.2 °C 1002.3 in /  33937.9 hPa SW 22.5 mph /  36.2 km/h 24.1 mph /  38.8 km/h 91 % 0.0 in /  0 mm
11:12 4.3 °F /  -15.4 °C 2.8 °F /  -16.2 °C 1001.9 in /  33924.3 hPa WSW 24.1 mph /  38.8 km/h 24.1 mph /  38.8 km/h 90 % 0.0 in /  0 mm
11:17 4.4 °F /  -15.3 °C 2.9 °F /  -16.2 °C 1001.9 in /  33924.3 hPa WSW 16.1 mph /  25.9 km/h 25.7 mph /  41.4 km/h 90 % 0.0 in /  0 mm
11:22 4.6 °F /  -15.2 °C 3.1 °F /  -16.1 °C 1001.9 in /  33924.3 hPa WSW 24.1 mph /  38.8 km/h 29.0 mph /  46.7 km/h 90 % 0.0 in /  0 mm
11:32 4.8 °F /  -15.1 °C 3.1 °F /  -16.1 °C 1001.9 in /  33924.3 hPa WSW 25.7 mph /  41.4 km/h 29.0 mph /  46.7 km/h 89 % 0.0 in /  0 mm
11:37 4.8 °F /  -15.1 °C 3.1 °F /  -16.1 °C 1001.9 in /  33924.3 hPa SW 11.3 mph /  18.2 km/h 27.4 mph /  44.1 km/h 89 % 0.0 in /  0 mm
11:42 4.9 °F /  -15.1 °C 3.2 °F /  -16 °C 1001.9 in /  33924.3 hPa WSW 9.7 mph /  15.6 km/h 27.4 mph /  44.1 km/h 89 % 0.0 in /  0 mm
11:52 5.0 °F /  -15 °C 3.2 °F /  -16 °C 1001.9 in /  33924.3 hPa SW 22.5 mph /  36.2 km/h 30.6 mph /  49.2 km/h 88 % 0.0 in /  0 mm
12:02 5.1 °F /  -14.9 °C 3.3 °F /  -15.9 °C 1001.6 in /  33914.2 hPa SW 20.9 mph /  33.6 km/h 25.7 mph /  41.4 km/h 88 % 0.0 in /  0 mm
12:12 5.2 °F /  -14.9 °C 3.4 °F /  -15.9 °C 1001.6 in /  33914.2 hPa SW 8.0 mph /  12.9 km/h 25.7 mph /  41.4 km/h 88 % 0.0 in /  0 mm
12:17 5.3 °F /  -14.8 °C 3.5 °F /  -15.8 °C 1001.6 in /  33914.2 hPa WSW 17.7 mph /  28.5 km/h 25.7 mph /  41.4 km/h 88 % 0.0 in /  0 mm
12:22 5.3 °F /  -14.8 °C 3.3 °F /  -15.9 °C 1001.6 in /  33914.2 hPa WSW 12.9 mph /  20.8 km/h 25.7 mph /  41.4 km/h 87 % 0.0 in /  0 mm
12:27 5.4 °F /  -14.8 °C 3.4 °F /  -15.9 °C 1001.6 in /  33914.2 hPa WSW 11.3 mph /  18.2 km/h 25.7 mph /  41.4 km/h 87 % 0.0 in /  0 mm
12:32 5.4 °F /  -14.8 °C 3.4 °F /  -15.9 °C 1001.2 in /  33900.6 hPa WSW 11.3 mph /  18.2 km/h 25.7 mph /  41.4 km/h 87 % 0.0 in /  0 mm
12:37 5.5 °F /  -14.7 °C 3.5 °F /  -15.8 °C 1001.2 in /  33900.6 hPa West 14.5 mph /  23.3 km/h 25.7 mph /  41.4 km/h 87 % 0.0 in /  0 mm
12:42 5.6 °F /  -14.7 °C 3.6 °F /  -15.8 °C 1001.6 in /  33914.2 hPa SW 17.7 mph /  28.5 km/h 25.7 mph /  41.4 km/h 87 % 0.0 in /  0 mm
12:52 5.7 °F /  -14.6 °C 3.5 °F /  -15.8 °C 1001.2 in /  33900.6 hPa WNW 11.3 mph /  18.2 km/h 27.4 mph /  44.1 km/h 86 % 0.0 in /  0 mm
12:57 5.8 °F /  -14.6 °C 3.6 °F /  -15.8 °C 1001.2 in /  33900.6 hPa SW 11.3 mph /  18.2 km/h 27.4 mph /  44.1 km/h 86 % 0.0 in /  0 mm
13:02 5.8 °F /  -14.6 °C 3.6 °F /  -15.8 °C 1001.2 in /  33900.6 hPa WSW 9.7 mph /  15.6 km/h 27.4 mph /  44.1 km/h 86 % 0.0 in /  0 mm
13:12 5.9 °F /  -14.5 °C 3.7 °F /  -15.7 °C 1000.9 in /  33890.5 hPa WSW 22.5 mph /  36.2 km/h 32.2 mph /  51.8 km/h 86 % 0.0 in /  0 mm
13:17 6.1 °F /  -14.4 °C 3.8 °F /  -15.7 °C 1000.9 in /  33890.5 hPa West 11.3 mph /  18.2 km/h 27.4 mph /  44.1 km/h 85 % 0.0 in /  0 mm
13:22 6.3 °F /  -14.3 °C 4.0 °F /  -15.6 °C 1000.6 in /  33880.3 hPa WSW 12.9 mph /  20.8 km/h 27.4 mph /  44.1 km/h 85 % 0.0 in /  0 mm
13:32 6.4 °F /  -14.2 °C 3.9 °F /  -15.6 °C 1000.6 in /  33880.3 hPa SW 16.1 mph /  25.9 km/h 27.4 mph /  44.1 km/h 84 % 0.0 in /  0 mm
13:37 6.5 °F /  -14.2 °C 3.8 °F /  -15.7 °C 1000.6 in /  33880.3 hPa WSW 19.3 mph /  31.1 km/h 25.7 mph /  41.4 km/h 83 % 0.0 in /  0 mm
13:42 6.6 °F /  -14.1 °C 3.9 °F /  -15.6 °C 1000.6 in /  33880.3 hPa SW 6.4 mph /  10.3 km/h 25.7 mph /  41.4 km/h 83 % 0.0 in /  0 mm
13:47 6.7 °F /  -14.1 °C 4.2 °F /  -15.4 °C 1000.6 in /  33880.3 hPa WSW 11.3 mph /  18.2 km/h 30.6 mph /  49.2 km/h 84 % 0.0 in /  0 mm
13:52 6.8 °F /  -14 °C 4.1 °F /  -15.5 °C 1000.6 in /  33880.3 hPa SW 20.9 mph /  33.6 km/h 30.6 mph /  49.2 km/h 83 % 0.0 in /  0 mm
13:57 6.8 °F /  -14 °C 4.1 °F /  -15.5 °C 1000.2 in /  33866.8 hPa WSW 17.7 mph /  28.5 km/h 30.6 mph /  49.2 km/h 83 % 0.0 in /  0 mm
14:02 6.8 °F /  -14 °C 4.1 °F /  -15.5 °C 1000.2 in /  33866.8 hPa WSW 12.9 mph /  20.8 km/h 30.6 mph /  49.2 km/h 83 % 0.0 in /  0 mm
14:12 7.0 °F /  -13.9 °C 4.0 °F /  -15.6 °C 1000.6 in /  33880.3 hPa WSW 12.9 mph /  20.8 km/h 27.4 mph /  44.1 km/h 81 % 0.0 in /  0 mm
14:17 6.9 °F /  -13.9 °C 3.9 °F /  -15.6 °C 1000.2 in /  33866.8 hPa West 20.9 mph /  33.6 km/h 30.6 mph /  49.2 km/h 81 % 0.0 in /  0 mm
14:22 6.9 °F /  -13.9 °C 3.9 °F /  -15.6 °C 1000.2 in /  33866.8 hPa WSW 20.9 mph /  33.6 km/h 30.6 mph /  49.2 km/h 81 % 0.0 in /  0 mm
14:32 6.9 °F /  -13.9 °C 4.0 °F /  -15.6 °C 999.9 in /  33856.6 hPa WSW 6.4 mph /  10.3 km/h 30.6 mph /  49.2 km/h 82 % 0.0 in /  0 mm
14:42 6.9 °F /  -13.9 °C 4.2 °F /  -15.4 °C 999.9 in /  33856.6 hPa SSW 8.0 mph /  12.9 km/h 24.1 mph /  38.8 km/h 83 % 0.0 in /  0 mm
14:47 6.9 °F /  -13.9 °C 4.0 °F /  -15.6 °C 999.5 in /  33843.1 hPa WSW 14.5 mph /  23.3 km/h 27.4 mph /  44.1 km/h 82 % 0.0 in /  0 mm
14:52 7.0 °F /  -13.9 °C 4.0 °F /  -15.6 °C 999.5 in /  33843.1 hPa WSW 25.7 mph /  41.4 km/h 32.2 mph /  51.8 km/h 81 % 0.0 in /  0 mm
14:57 7.0 °F /  -13.9 °C 4.0 °F /  -15.6 °C 999.5 in /  33843.1 hPa WSW 16.1 mph /  25.9 km/h 33.8 mph /  54.4 km/h 81 % 0.0 in /  0 mm
15:02 7.0 °F /  -13.9 °C 4.0 °F /  -15.6 °C 999.5 in /  33843.1 hPa SW 12.9 mph /  20.8 km/h 33.8 mph /  54.4 km/h 81 % 0.0 in /  0 mm
15:07 7.0 °F /  -13.9 °C 4.0 °F /  -15.6 °C 999.5 in /  33843.1 hPa SW 6.4 mph /  10.3 km/h 32.2 mph /  51.8 km/h 81 % 0.0 in /  0 mm
15:12 7.0 °F /  -13.9 °C 4.1 °F /  -15.5 °C 999.2 in /  33832.9 hPa SSW 9.7 mph /  15.6 km/h 25.7 mph /  41.4 km/h 82 % 0.0 in /  0 mm
15:17 6.9 °F /  -13.9 °C 4.0 °F /  -15.6 °C 999.2 in /  33832.9 hPa WSW 11.3 mph /  18.2 km/h 27.4 mph /  44.1 km/h 82 % 0.0 in /  0 mm
15:27 6.8 °F /  -14 °C 4.3 °F /  -15.4 °C 999.2 in /  33832.9 hPa WSW 14.5 mph /  23.3 km/h 27.4 mph /  44.1 km/h 84 % 0.3 in /  7.62 mm
15:32 6.7 °F /  -14.1 °C 4.4 °F /  -15.3 °C 999.2 in /  33832.9 hPa SW 16.1 mph /  25.9 km/h 25.7 mph /  41.4 km/h 85 % 0.3 in /  7.62 mm
15:42 6.6 °F /  -14.1 °C 4.3 °F /  -15.4 °C 999.2 in /  33832.9 hPa WSW 22.5 mph /  36.2 km/h 25.7 mph /  41.4 km/h 85 % 0.3 in /  7.62 mm
15:47 6.5 °F /  -14.2 °C 4.2 °F /  -15.4 °C 999.2 in /  33832.9 hPa SW 12.9 mph /  20.8 km/h 25.7 mph /  41.4 km/h 85 % 0.3 in /  7.62 mm
15:52 6.5 °F /  -14.2 °C 4.2 °F /  -15.4 °C 999.2 in /  33832.9 hPa WSW 16.1 mph /  25.9 km/h 25.7 mph /  41.4 km/h 85 % 0.3 in /  7.62 mm
15:57 6.6 °F /  -14.1 °C 4.3 °F /  -15.4 °C 999.2 in /  33832.9 hPa SW 16.1 mph /  25.9 km/h 25.7 mph /  41.4 km/h 85 % 0.3 in /  7.62 mm
16:02 6.5 °F /  -14.2 °C 4.2 °F /  -15.4 °C 999.5 in /  33843.1 hPa West 12.9 mph /  20.8 km/h 22.5 mph /  36.2 km/h 85 % 0.5 in /  12.7 mm
16:07 6.1 °F /  -14.4 °C 4.1 °F /  -15.5 °C 999.2 in /  33832.9 hPa WSW 8.0 mph /  12.9 km/h 30.6 mph /  49.2 km/h 87 % 1.0 in /  25.4 mm
16:12 6.0 °F /  -14.4 °C 4.2 °F /  -15.4 °C 999.2 in /  33832.9 hPa SW 20.9 mph /  33.6 km/h 30.6 mph /  49.2 km/h 88 % 1.5 in /  38.1 mm
16:17 6.0 °F /  -14.4 °C 4.0 °F /  -15.6 °C 999.2 in /  33832.9 hPa SW 11.3 mph /  18.2 km/h 38.6 mph /  62.1 km/h 87 % 1.5 in /  38.1 mm
16:22 5.8 °F /  -14.6 °C 3.8 °F /  -15.7 °C 999.2 in /  33832.9 hPa WSW 17.7 mph /  28.5 km/h 38.6 mph /  62.1 km/h 87 % 1.5 in /  38.1 mm
16:27 5.5 °F /  -14.7 °C 3.7 °F /  -15.7 °C 999.5 in /  33843.1 hPa WSW 14.5 mph /  23.3 km/h 38.6 mph /  62.1 km/h 88 % 1.5 in /  38.1 mm
16:32 5.3 °F /  -14.8 °C 3.6 °F /  -15.8 °C 999.5 in /  33843.1 hPa SW 17.7 mph /  28.5 km/h 35.4 mph /  57 km/h 89 % 1.5 in /  38.1 mm
16:37 5.2 °F /  -14.9 °C 3.7 °F /  -15.7 °C 999.5 in /  33843.1 hPa WSW 16.1 mph /  25.9 km/h 35.4 mph /  57 km/h 90 % 1.5 in /  38.1 mm
16:42 5.2 °F /  -14.9 °C 3.9 °F /  -15.6 °C 999.5 in /  33843.1 hPa SW 12.9 mph /  20.8 km/h 27.4 mph /  44.1 km/h 91 % 1.5 in /  38.1 mm
16:52 5.3 °F /  -14.8 °C 4.0 °F /  -15.6 °C 999.5 in /  33843.1 hPa WSW 12.9 mph /  20.8 km/h 24.1 mph /  38.8 km/h 91 % 1.8 in /  45.72 mm
17:02 5.3 °F /  -14.8 °C 3.8 °F /  -15.7 °C 999.5 in /  33843.1 hPa West 9.7 mph /  15.6 km/h 30.6 mph /  49.2 km/h 90 % 1.5 in /  38.1 mm
17:12 5.3 °F /  -14.8 °C 3.6 °F /  -15.8 °C 999.9 in /  33856.6 hPa SSW 9.7 mph /  15.6 km/h 30.6 mph /  49.2 km/h 89 % 0.5 in /  12.7 mm
17:17 5.2 °F /  -14.9 °C 3.7 °F /  -15.7 °C 999.5 in /  33843.1 hPa West 6.4 mph /  10.3 km/h 30.6 mph /  49.2 km/h 90 % 0.5 in /  12.7 mm
17:22 5.1 °F /  -14.9 °C 3.6 °F /  -15.8 °C 999.5 in /  33843.1 hPa West 14.5 mph /  23.3 km/h 22.5 mph /  36.2 km/h 90 % 0.5 in /  12.7 mm
17:27 5.1 °F /  -14.9 °C 3.6 °F /  -15.8 °C 999.5 in /  33843.1 hPa WSW 6.4 mph /  10.3 km/h 20.9 mph /  33.6 km/h 90 % 0.5 in /  12.7 mm
17:32 4.9 °F /  -15.1 °C 3.4 °F /  -15.9 °C 999.5 in /  33843.1 hPa West 16.1 mph /  25.9 km/h 20.9 mph /  33.6 km/h 90 % 0.5 in /  12.7 mm
17:42 4.9 °F /  -15.1 °C 3.4 °F /  -15.9 °C 999.5 in /  33843.1 hPa WNW 3.2 mph /  5.1 km/h 19.3 mph /  31.1 km/h 90 % 0.5 in /  12.7 mm
17:47 4.9 °F /  -15.1 °C 3.4 °F /  -15.9 °C 999.9 in /  33856.6 hPa SW 14.5 mph /  23.3 km/h 16.1 mph /  25.9 km/h 90 % 0.3 in /  7.62 mm
17:52 4.9 °F /  -15.1 °C 3.6 °F /  -15.8 °C 999.9 in /  33856.6 hPa WSW 9.7 mph /  15.6 km/h 20.9 mph /  33.6 km/h 91 % 0.0 in /  0 mm
17:57 4.9 °F /  -15.1 °C 3.4 °F /  -15.9 °C 999.9 in /  33856.6 hPa West 12.9 mph /  20.8 km/h 24.1 mph /  38.8 km/h 90 % 0.3 in /  7.62 mm
18:07 4.7 °F /  -15.2 °C 3.0 °F /  -16.1 °C 999.9 in /  33856.6 hPa NW 11.3 mph /  18.2 km/h 25.7 mph /  41.4 km/h 89 % 0.3 in /  7.62 mm
18:12 4.5 °F /  -15.3 °C 2.8 °F /  -16.2 °C 1000.2 in /  33866.8 hPa WNW 14.5 mph /  23.3 km/h 33.8 mph /  54.4 km/h 89 % 0.3 in /  7.62 mm
18:17 4.3 °F /  -15.4 °C 2.6 °F /  -16.3 °C 1000.2 in /  33866.8 hPa West 16.1 mph /  25.9 km/h 33.8 mph /  54.4 km/h 89 % 0.3 in /  7.62 mm
18:22 4.1 °F /  -15.5 °C 2.6 °F /  -16.3 °C 1000.2 in /  33866.8 hPa WNW 12.9 mph /  20.8 km/h 33.8 mph /  54.4 km/h 90 % 0.3 in /  7.62 mm
18:32 3.9 °F /  -15.6 °C 2.4 °F /  -16.4 °C 1000.6 in /  33880.3 hPa WNW 17.7 mph /  28.5 km/h 30.6 mph /  49.2 km/h 90 % 0.3 in /  7.62 mm
18:42 3.7 °F /  -15.7 °C 2.4 °F /  -16.4 °C 1000.6 in /  33880.3 hPa Calm   32.2 mph /  51.8 km/h 91 % 0.5 in /  12.7 mm
18:47 3.6 °F /  -15.8 °C 2.4 °F /  -16.4 °C 1000.9 in /  33890.5 hPa West 9.7 mph /  15.6 km/h 25.7 mph /  41.4 km/h 92 % 0.5 in /  12.7 mm
18:52 3.4 °F /  -15.9 °C 2.1 °F /  -16.6 °C 1000.9 in /  33890.5 hPa North 19.3 mph /  31.1 km/h 33.8 mph /  54.4 km/h 91 % 0.5 in /  12.7 mm
18:57 3.3 °F /  -15.9 °C 2.0 °F /  -16.7 °C 1001.2 in /  33900.6 hPa NNW 4.8 mph /  7.7 km/h 33.8 mph /  54.4 km/h 91 % 0.5 in /  12.7 mm
19:02 3.2 °F /  -16 °C 1.9 °F /  -16.7 °C 1001.2 in /  33900.6 hPa NW 8.0 mph /  12.9 km/h 33.8 mph /  54.4 km/h 91 % 0.5 in /  12.7 mm
19:07 3.1 °F /  -16.1 °C 1.9 °F /  -16.7 °C 1001.2 in /  33900.6 hPa West 9.7 mph /  15.6 km/h 32.2 mph /  51.8 km/h 92 % 0.5 in /  12.7 mm
19:17 3.1 °F /  -16.1 °C 1.9 °F /  -16.7 °C 1001.6 in /  33914.2 hPa WNW 17.7 mph /  28.5 km/h 24.1 mph /  38.8 km/h 92 % 0.5 in /  12.7 mm
19:22 3.1 °F /  -16.1 °C 1.9 °F /  -16.7 °C 1001.6 in /  33914.2 hPa WNW 3.2 mph /  5.1 km/h 27.4 mph /  44.1 km/h 92 % 0.5 in /  12.7 mm
19:27 3.1 °F /  -16.1 °C 1.9 °F /  -16.7 °C 1001.6 in /  33914.2 hPa WNW 24.1 mph /  38.8 km/h 27.4 mph /  44.1 km/h 92 % 0.5 in /  12.7 mm
19:32 3.1 °F /  -16.1 °C 1.9 °F /  -16.7 °C 1001.6 in /  33914.2 hPa NW 12.9 mph /  20.8 km/h 25.7 mph /  41.4 km/h 92 % 0.5 in /  12.7 mm
19:42 3.1 °F /  -16.1 °C 1.9 °F /  -16.7 °C 1001.9 in /  33924.3 hPa WNW 9.7 mph /  15.6 km/h 33.8 mph /  54.4 km/h 92 % 0.5 in /  12.7 mm
19:47 3.1 °F /  -16.1 °C 1.9 °F /  -16.7 °C 1001.9 in /  33924.3 hPa WNW 19.3 mph /  31.1 km/h 33.8 mph /  54.4 km/h 92 % 0.5 in /  12.7 mm
19:52 3.1 °F /  -16.1 °C 1.9 °F /  -16.7 °C 1002.3 in /  33937.9 hPa WNW 11.3 mph /  18.2 km/h 25.7 mph /  41.4 km/h 92 % 0.5 in /  12.7 mm
19:57 3.1 °F /  -16.1 °C 1.9 °F /  -16.7 °C 1002.3 in /  33937.9 hPa WNW 14.5 mph /  23.3 km/h 24.1 mph /  38.8 km/h 92 % 0.3 in /  7.62 mm
20:02 3.1 °F /  -16.1 °C 1.9 °F /  -16.7 °C 1002.3 in /  33937.9 hPa WNW 4.8 mph /  7.7 km/h 27.4 mph /  44.1 km/h 92 % 0.3 in /  7.62 mm
20:07 3.2 °F /  -16 °C 2.0 °F /  -16.7 °C 1002.6 in /  33948 hPa NW 24.1 mph /  38.8 km/h 29.0 mph /  46.7 km/h 92 % 0.3 in /  7.62 mm
20:12 3.2 °F /  -16 °C 2.0 °F /  -16.7 °C 1002.6 in /  33948 hPa WNW 11.3 mph /  18.2 km/h 29.0 mph /  46.7 km/h 92 % 0.5 in /  12.7 mm
20:17 3.2 °F /  -16 °C 2.0 °F /  -16.7 °C 1002.6 in /  33948 hPa WNW 9.7 mph /  15.6 km/h 29.0 mph /  46.7 km/h 92 % 0.5 in /  12.7 mm
20:22 3.3 °F /  -15.9 °C 2.1 °F /  -16.6 °C 1002.9 in /  33958.2 hPa WNW 14.5 mph /  23.3 km/h 33.8 mph /  54.4 km/h 92 % 0.5 in /  12.7 mm
20:27 3.3 °F /  -15.9 °C 2.1 °F /  -16.6 °C 1002.9 in /  33958.2 hPa WNW 9.7 mph /  15.6 km/h 33.8 mph /  54.4 km/h 92 % 0.5 in /  12.7 mm
20:32 3.3 °F /  -15.9 °C 2.1 °F /  -16.6 °C 1003.3 in /  33971.7 hPa WNW 16.1 mph /  25.9 km/h 33.8 mph /  54.4 km/h 92 % 0.3 in /  7.62 mm
20:42 3.4 °F /  -15.9 °C 2.2 °F /  -16.6 °C 1003.6 in /  33981.9 hPa NNW 16.1 mph /  25.9 km/h 29.0 mph /  46.7 km/h 92 % 0.3 in /  7.62 mm
20:47 3.4 °F /  -15.9 °C 2.2 °F /  -16.6 °C 1003.6 in /  33981.9 hPa NW 17.7 mph /  28.5 km/h 29.0 mph /  46.7 km/h 92 % 0.3 in /  7.62 mm
20:52 3.4 °F /  -15.9 °C 2.2 °F /  -16.6 °C 1003.9 in /  33992.1 hPa NW 8.0 mph /  12.9 km/h 29.0 mph /  46.7 km/h 92 % 0.3 in /  7.62 mm
20:57 3.4 °F /  -15.9 °C 2.2 °F /  -16.6 °C 1003.9 in /  33992.1 hPa WNW 20.9 mph /  33.6 km/h 22.5 mph /  36.2 km/h 92 % 0.5 in /  12.7 mm
21:02 3.3 °F /  -15.9 °C 2.1 °F /  -16.6 °C 1003.9 in /  33992.1 hPa WNW 14.5 mph /  23.3 km/h 27.4 mph /  44.1 km/h 92 % 0.5 in /  12.7 mm
21:07 3.3 °F /  -15.9 °C 2.3 °F /  -16.5 °C 1003.9 in /  33992.1 hPa NW 8.0 mph /  12.9 km/h 27.4 mph /  44.1 km/h 93 % 0.5 in /  12.7 mm
21:12 3.4 °F /  -15.9 °C 2.2 °F /  -16.6 °C 1004.3 in /  34005.6 hPa WNW 9.7 mph /  15.6 km/h 27.4 mph /  44.1 km/h 92 % 0.3 in /  7.62 mm
21:22 3.4 °F /  -15.9 °C 2.2 °F /  -16.6 °C 1004.3 in /  34005.6 hPa NW 9.7 mph /  15.6 km/h 22.5 mph /  36.2 km/h 92 % 0.3 in /  7.62 mm
21:27 3.5 °F /  -15.8 °C 2.3 °F /  -16.5 °C 1004.3 in /  34005.6 hPa West 6.4 mph /  10.3 km/h 25.7 mph /  41.4 km/h 92 % 0.3 in /  7.62 mm
21:32 3.5 °F /  -15.8 °C 2.3 °F /  -16.5 °C 1004.6 in /  34015.8 hPa NW 12.9 mph /  20.8 km/h 25.7 mph /  41.4 km/h 92 % 0.3 in /  7.62 mm
21:37 3.6 °F /  -15.8 °C 2.3 °F /  -16.5 °C 1004.6 in /  34015.8 hPa WNW 12.9 mph /  20.8 km/h 25.7 mph /  41.4 km/h 91 % 0.3 in /  7.62 mm
21:42 3.6 °F /  -15.8 °C 2.3 °F /  -16.5 °C 1004.6 in /  34015.8 hPa NW 8.0 mph /  12.9 km/h 20.9 mph /  33.6 km/h 91 % 0.3 in /  7.62 mm
21:47 3.6 °F /  -15.8 °C 2.3 °F /  -16.5 °C 1004.6 in /  34015.8 hPa WNW 11.3 mph /  18.2 km/h 24.1 mph /  38.8 km/h 91 % 0.3 in /  7.62 mm
21:52 3.6 °F /  -15.8 °C 2.3 °F /  -16.5 °C 1004.6 in /  34015.8 hPa WNW 4.8 mph /  7.7 km/h 24.1 mph /  38.8 km/h 91 % 0.0 in /  0 mm
21:57 3.6 °F /  -15.8 °C 2.1 °F /  -16.6 °C 1005.0 in /  34029.3 hPa NW 8.0 mph /  12.9 km/h 25.7 mph /  41.4 km/h 90 % 0.0 in /  0 mm
22:02 3.6 °F /  -15.8 °C 2.1 °F /  -16.6 °C 1005.0 in /  34029.3 hPa WNW 16.1 mph /  25.9 km/h 25.7 mph /  41.4 km/h 90 % 0.0 in /  0 mm
22:12 3.6 °F /  -15.8 °C 2.1 °F /  -16.6 °C 1005.0 in /  34029.3 hPa WNW 3.2 mph /  5.1 km/h 25.7 mph /  41.4 km/h 90 % 0.0 in /  0 mm
22:17 3.7 °F /  -15.7 °C 2.2 °F /  -16.6 °C 1005.3 in /  34039.5 hPa WNW 11.3 mph /  18.2 km/h 25.7 mph /  41.4 km/h 90 % 0.0 in /  0 mm
22:22 3.7 °F /  -15.7 °C 2.2 °F /  -16.6 °C 1005.3 in /  34039.5 hPa WNW 8.0 mph /  12.9 km/h 25.7 mph /  41.4 km/h 90 % 0.0 in /  0 mm
22:27 3.7 °F /  -15.7 °C 2.2 °F /  -16.6 °C 1005.3 in /  34039.5 hPa NW 4.8 mph /  7.7 km/h 19.3 mph /  31.1 km/h 90 % 0.0 in /  0 mm
22:32 3.7 °F /  -15.7 °C 2.2 °F /  -16.6 °C 1005.6 in /  34049.6 hPa NNW 6.4 mph /  10.3 km/h 16.1 mph /  25.9 km/h 90 % 0.0 in /  0 mm
22:37 3.7 °F /  -15.7 °C 2.2 °F /  -16.6 °C 1005.6 in /  34049.6 hPa WNW 8.0 mph /  12.9 km/h 16.1 mph /  25.9 km/h 90 % 0.0 in /  0 mm
22:42 3.7 °F /  -15.7 °C 2.1 °F /  -16.6 °C 1005.6 in /  34049.6 hPa WNW 9.7 mph /  15.6 km/h 25.7 mph /  41.4 km/h 89 % 0.0 in /  0 mm
22:47 3.7 °F /  -15.7 °C 2.1 °F /  -16.6 °C 1005.6 in /  34049.6 hPa NW 8.0 mph /  12.9 km/h 25.7 mph /  41.4 km/h 89 % 0.0 in /  0 mm
22:52 3.6 °F /  -15.8 °C 2.0 °F /  -16.7 °C 1006.0 in /  34063.2 hPa WNW 22.5 mph /  36.2 km/h 25.7 mph /  41.4 km/h 89 % 0.0 in /  0 mm
22:57 3.4 °F /  -15.9 °C 1.9 °F /  -16.7 °C 1006.0 in /  34063.2 hPa WNW 8.0 mph /  12.9 km/h 27.4 mph /  44.1 km/h 90 % 0.0 in /  0 mm
23:07 3.5 °F /  -15.8 °C 2.0 °F /  -16.7 °C 1006.0 in /  34063.2 hPa WNW 9.7 mph /  15.6 km/h 24.1 mph /  38.8 km/h 90 % 0.0 in /  0 mm
23:12 3.5 °F /  -15.8 °C 2.0 °F /  -16.7 °C 1006.3 in /  34073.3 hPa WNW 1.6 mph /  2.6 km/h 17.7 mph /  28.5 km/h 90 % 0.0 in /  0 mm
23:22 3.5 °F /  -15.8 °C 2.2 °F /  -16.6 °C 1006.3 in /  34073.3 hPa West 3.2 mph /  5.1 km/h 12.9 mph /  20.8 km/h 91 % 0.0 in /  0 mm
23:27 3.5 °F /  -15.8 °C 2.2 °F /  -16.6 °C 1006.7 in /  34086.9 hPa NW 4.8 mph /  7.7 km/h 14.5 mph /  23.3 km/h 91 % 0.0 in /  0 mm
23:32 3.4 °F /  -15.9 °C 2.1 °F /  -16.6 °C 1006.7 in /  34086.9 hPa WNW 3.2 mph /  5.1 km/h 14.5 mph /  23.3 km/h 91 % 0.3 in /  7.62 mm
23:42 3.3 °F /  -15.9 °C 2.1 °F /  -16.6 °C 1006.7 in /  34086.9 hPa WNW 6.4 mph /  10.3 km/h 14.5 mph /  23.3 km/h 92 % 0.3 in /  7.62 mm
23:47 3.2 °F /  -16 °C 2.0 °F /  -16.7 °C 1006.7 in /  34086.9 hPa WNW 4.8 mph /  7.7 km/h 17.7 mph /  28.5 km/h 92 % 0.3 in /  7.62 mm
23:52 3.2 °F /  -16 °C 2.0 °F /  -16.7 °C 1006.7 in /  34086.9 hPa NW 12.9 mph /  20.8 km/h 19.3 mph /  31.1 km/h 92 % 0.3 in /  7.62 mm
23:57 3.2 °F /  -16 °C 2.0 °F /  -16.7 °C 1007.0 in /  34097 hPa WNW 14.5 mph /  23.3 km/h 22.5 mph /  36.2 km/h 92 % 0.5 in /  12.7 mm
Meteo18
Compliments of Weather Underground - 4 mb

Script developed by  Jim McMurry - jmcmurry@mwt.net Adapted for the template by  Wim van der Kuil - Leuven-Template.eu

You find our weather info also at:

European Weather Network

Weather Underground

Equipment we use:

Weather-station
Davis Vue

Weather-program
Meteobridge

Weather-server
Raspberry PI 2 B+

Provider
1 and 1

Davis Vue

Meteobridge

Raspberry PI 2 B+

1 and 1